sensor_id;sensor_type;location;lat;lon;timestamp;pressure;altitude;pressure_sealevel;temperature
41710;BMP280;59402;48.396;-4.472;2022-07-17T00:01:55;101348.59;;;21.67
41710;BMP280;59402;48.396;-4.472;2022-07-17T00:04:20;101360.38;;;21.63
41710;BMP280;59402;48.396;-4.472;2022-07-17T00:06:46;101348.53;;;21.61
41710;BMP280;59402;48.396;-4.472;2022-07-17T00:09:11;101347.25;;;21.57
41710;BMP280;59402;48.396;-4.472;2022-07-17T00:11:37;101347.97;;;21.51
41710;BMP280;59402;48.396;-4.472;2022-07-17T00:14:02;101345.75;;;21.48
41710;BMP280;59402;48.396;-4.472;2022-07-17T00:16:28;101357.78;;;21.49
41710;BMP280;59402;48.396;-4.472;2022-07-17T00:18:53;101362.00;;;21.50
41710;BMP280;59402;48.396;-4.472;2022-07-17T00:21:19;101346.72;;;21.47
41710;BMP280;59402;48.396;-4.472;2022-07-17T00:23:44;101350.50;;;21.45
41710;BMP280;59402;48.396;-4.472;2022-07-17T00:26:11;101344.84;;;21.41
41710;BMP280;59402;48.396;-4.472;2022-07-17T00:28:36;101354.00;;;21.37
41710;BMP280;59402;48.396;-4.472;2022-07-17T00:31:02;101347.13;;;21.36
41710;BMP280;59402;48.396;-4.472;2022-07-17T00:33:27;101339.88;;;21.32
41710;BMP280;59402;48.396;-4.472;2022-07-17T00:35:53;101336.19;;;21.26
41710;BMP280;59402;48.396;-4.472;2022-07-17T00:38:18;101332.97;;;21.24
41710;BMP280;59402;48.396;-4.472;2022-07-17T00:40:44;101330.91;;;21.20
41710;BMP280;59402;48.396;-4.472;2022-07-17T00:43:10;101335.28;;;21.20
41710;BMP280;59402;48.396;-4.472;2022-07-17T00:45:35;101328.47;;;21.19
41710;BMP280;59402;48.396;-4.472;2022-07-17T00:48:03;101323.78;;;21.14
41710;BMP280;59402;48.396;-4.472;2022-07-17T00:50:33;101315.69;;;21.09
41710;BMP280;59402;48.396;-4.472;2022-07-17T00:52:58;101311.66;;;21.07
41710;BMP280;59402;48.396;-4.472;2022-07-17T00:55:25;101314.25;;;21.07
41710;BMP280;59402;48.396;-4.472;2022-07-17T00:57:51;101319.66;;;21.05
41710;BMP280;59402;48.396;-4.472;2022-07-17T01:00:19;101317.75;;;20.99
41710;BMP280;59402;48.396;-4.472;2022-07-17T01:02:49;101310.13;;;20.98
41710;BMP280;59402;48.396;-4.472;2022-07-17T01:05:16;101306.88;;;20.96
41710;BMP280;59402;48.396;-4.472;2022-07-17T01:07:42;101294.88;;;20.95
41710;BMP280;59402;48.396;-4.472;2022-07-17T01:10:08;101292.28;;;20.95
41710;BMP280;59402;48.396;-4.472;2022-07-17T01:12:34;101287.22;;;20.93
41710;BMP280;59402;48.396;-4.472;2022-07-17T01:14:59;101290.63;;;20.94
41710;BMP280;59402;48.396;-4.472;2022-07-17T01:17:26;101283.81;;;20.93
41710;BMP280;59402;48.396;-4.472;2022-07-17T01:19:52;101283.47;;;20.96
41710;BMP280;59402;48.396;-4.472;2022-07-17T01:22:18;101282.13;;;21.00
41710;BMP280;59402;48.396;-4.472;2022-07-17T01:24:43;101281.41;;;21.06
41710;BMP280;59402;48.396;-4.472;2022-07-17T01:27:09;101286.72;;;21.12
41710;BMP280;59402;48.396;-4.472;2022-07-17T01:29:38;101278.97;;;21.19
41710;BMP280;59402;48.396;-4.472;2022-07-17T01:32:04;101263.44;;;21.25
41710;BMP280;59402;48.396;-4.472;2022-07-17T01:34:30;101268.91;;;21.30
41710;BMP280;59402;48.396;-4.472;2022-07-17T01:36:56;101264.00;;;21.35
41710;BMP280;59402;48.396;-4.472;2022-07-17T01:39:21;101261.50;;;21.41
41710;BMP280;59402;48.396;-4.472;2022-07-17T01:42:06;101261.03;;;21.52
41710;BMP280;59402;48.396;-4.472;2022-07-17T01:44:32;101259.94;;;21.61
41710;BMP280;59402;48.396;-4.472;2022-07-17T01:46:57;101262.59;;;21.67
41710;BMP280;59402;48.396;-4.472;2022-07-17T01:49:23;101258.81;;;21.70
41710;BMP280;59402;48.396;-4.472;2022-07-17T01:51:48;101259.91;;;21.75
41710;BMP280;59402;48.396;-4.472;2022-07-17T01:54:14;101256.34;;;21.83
41710;BMP280;59402;48.396;-4.472;2022-07-17T01:56:40;101252.84;;;21.90
41710;BMP280;59402;48.396;-4.472;2022-07-17T01:59:05;101252.91;;;21.96
41710;BMP280;59402;48.396;-4.472;2022-07-17T02:01:31;101253.34;;;22.00
41710;BMP280;59402;48.396;-4.472;2022-07-17T02:03:56;101248.19;;;22.06
41710;BMP280;59402;48.396;-4.472;2022-07-17T02:06:22;101252.13;;;22.17
41710;BMP280;59402;48.396;-4.472;2022-07-17T02:08:47;101253.34;;;22.21
41710;BMP280;59402;48.396;-4.472;2022-07-17T02:11:17;101253.00;;;22.24
41710;BMP280;59402;48.396;-4.472;2022-07-17T02:13:42;101242.63;;;22.30
41710;BMP280;59402;48.396;-4.472;2022-07-17T02:16:08;101250.84;;;22.33
41710;BMP280;59402;48.396;-4.472;2022-07-17T02:18:33;101250.06;;;22.33
41710;BMP280;59402;48.396;-4.472;2022-07-17T02:20:59;101246.47;;;22.34
41710;BMP280;59402;48.396;-4.472;2022-07-17T02:23:24;101245.09;;;22.38
41710;BMP280;59402;48.396;-4.472;2022-07-17T02:25:50;101249.31;;;22.39
41710;BMP280;59402;48.396;-4.472;2022-07-17T02:28:15;101246.72;;;22.39
41710;BMP280;59402;48.396;-4.472;2022-07-17T02:30:41;101248.13;;;22.41
41710;BMP280;59402;48.396;-4.472;2022-07-17T02:33:06;101252.16;;;22.44
41710;BMP280;59402;48.396;-4.472;2022-07-17T02:35:32;101240.16;;;22.49
41710;BMP280;59402;48.396;-4.472;2022-07-17T02:37:59;101239.72;;;22.46
41710;BMP280;59402;48.396;-4.472;2022-07-17T02:40:24;101236.72;;;22.42
41710;BMP280;59402;48.396;-4.472;2022-07-17T02:42:49;101244.31;;;22.44
41710;BMP280;59402;48.396;-4.472;2022-07-17T02:45:15;101232.91;;;22.45
41710;BMP280;59402;48.396;-4.472;2022-07-17T02:47:41;101236.50;;;22.44
41710;BMP280;59402;48.396;-4.472;2022-07-17T02:50:08;101233.28;;;22.42
41710;BMP280;59402;48.396;-4.472;2022-07-17T02:52:34;101229.06;;;22.41
41710;BMP280;59402;48.396;-4.472;2022-07-17T02:54:59;101230.44;;;22.37
41710;BMP280;59402;48.396;-4.472;2022-07-17T02:57:25;101224.22;;;22.38
41710;BMP280;59402;48.396;-4.472;2022-07-17T02:59:50;101228.84;;;22.36
41710;BMP280;59402;48.396;-4.472;2022-07-17T03:02:16;101234.41;;;22.33
41710;BMP280;59402;48.396;-4.472;2022-07-17T03:04:41;101240.06;;;22.36
41710;BMP280;59402;48.396;-4.472;2022-07-17T03:07:06;101245.63;;;22.33
41710;BMP280;59402;48.396;-4.472;2022-07-17T03:09:32;101239.28;;;22.36
41710;BMP280;59402;48.396;-4.472;2022-07-17T03:11:58;101235.81;;;22.35
41710;BMP280;59402;48.396;-4.472;2022-07-17T03:14:24;101232.69;;;22.40
41710;BMP280;59402;48.396;-4.472;2022-07-17T03:16:49;101236.50;;;22.44
41710;BMP280;59402;48.396;-4.472;2022-07-17T03:19:15;101241.16;;;22.48
41710;BMP280;59402;48.396;-4.472;2022-07-17T03:21:40;101238.13;;;22.45
41710;BMP280;59402;48.396;-4.472;2022-07-17T03:24:06;101228.06;;;22.42
41710;BMP280;59402;48.396;-4.472;2022-07-17T03:26:31;101232.84;;;22.38
41710;BMP280;59402;48.396;-4.472;2022-07-17T03:28:56;101236.84;;;22.34
41710;BMP280;59402;48.396;-4.472;2022-07-17T03:31:22;101236.84;;;22.34
41710;BMP280;59402;48.396;-4.472;2022-07-17T03:33:47;101246.84;;;22.31
41710;BMP280;59402;48.396;-4.472;2022-07-17T03:36:13;101246.22;;;22.29
41710;BMP280;59402;48.396;-4.472;2022-07-17T03:38:38;101244.78;;;22.27
41710;BMP280;59402;48.396;-4.472;2022-07-17T03:41:04;101243.59;;;22.29
41710;BMP280;59402;48.396;-4.472;2022-07-17T03:43:29;101248.19;;;22.27
41710;BMP280;59402;48.396;-4.472;2022-07-17T03:45:55;101251.38;;;22.23
41710;BMP280;59402;48.396;-4.472;2022-07-17T03:48:20;101246.38;;;22.21
41710;BMP280;59402;48.396;-4.472;2022-07-17T03:50:45;101250.13;;;22.19
41710;BMP280;59402;48.396;-4.472;2022-07-17T03:53:11;101246.31;;;22.15
41710;BMP280;59402;48.396;-4.472;2022-07-17T03:55:36;101251.03;;;22.11
41710;BMP280;59402;48.396;-4.472;2022-07-17T03:58:02;101246.56;;;22.05
41710;BMP280;59402;48.396;-4.472;2022-07-17T04:00:27;101252.78;;;22.04
41710;BMP280;59402;48.396;-4.472;2022-07-17T04:02:53;101246.94;;;22.02
41710;BMP280;59402;48.396;-4.472;2022-07-17T04:05:18;101245.31;;;22.01
41710;BMP280;59402;48.396;-4.472;2022-07-17T04:07:44;101251.53;;;22.00
41710;BMP280;59402;48.396;-4.472;2022-07-17T04:10:12;101252.53;;;21.99
41710;BMP280;59402;48.396;-4.472;2022-07-17T04:12:38;101250.66;;;21.93
41710;BMP280;59402;48.396;-4.472;2022-07-17T04:15:05;101250.06;;;21.92
41710;BMP280;59402;48.396;-4.472;2022-07-17T04:17:31;101249.16;;;21.85
41710;BMP280;59402;48.396;-4.472;2022-07-17T04:19:57;101243.53;;;21.81
41710;BMP280;59402;48.396;-4.472;2022-07-17T04:22:22;101241.97;;;21.87
41710;BMP280;59402;48.396;-4.472;2022-07-17T04:24:48;101239.97;;;21.89
41710;BMP280;59402;48.396;-4.472;2022-07-17T04:27:14;101231.91;;;21.84
41710;BMP280;59402;48.396;-4.472;2022-07-17T04:29:39;101231.53;;;21.87
41710;BMP280;59402;48.396;-4.472;2022-07-17T04:32:05;101227.19;;;21.93
41710;BMP280;59402;48.396;-4.472;2022-07-17T04:34:31;101227.41;;;21.92
41710;BMP280;59402;48.396;-4.472;2022-07-17T04:36:58;101236.00;;;21.92
41710;BMP280;59402;48.396;-4.472;2022-07-17T04:39:24;101234.72;;;22.03
41710;BMP280;59402;48.396;-4.472;2022-07-17T04:41:51;101228.44;;;21.97
41710;BMP280;59402;48.396;-4.472;2022-07-17T04:44:17;101230.22;;;21.97
41710;BMP280;59402;48.396;-4.472;2022-07-17T04:46:43;101225.59;;;21.92
41710;BMP280;59402;48.396;-4.472;2022-07-17T04:49:08;101237.44;;;21.95
41710;BMP280;59402;48.396;-4.472;2022-07-17T04:51:34;101230.56;;;21.88
41710;BMP280;59402;48.396;-4.472;2022-07-17T04:53:59;101233.50;;;21.85
41710;BMP280;59402;48.396;-4.472;2022-07-17T04:56:25;101233.50;;;21.85
41710;BMP280;59402;48.396;-4.472;2022-07-17T04:58:50;101235.72;;;21.81
41710;BMP280;59402;48.396;-4.472;2022-07-17T05:01:16;101231.19;;;21.90
41710;BMP280;59402;48.396;-4.472;2022-07-17T05:03:41;101235.78;;;21.88
41710;BMP280;59402;48.396;-4.472;2022-07-17T05:06:07;101235.38;;;21.91
41710;BMP280;59402;48.396;-4.472;2022-07-17T05:08:34;101230.56;;;21.88
41710;BMP280;59402;48.396;-4.472;2022-07-17T05:10:59;101235.88;;;21.80
41710;BMP280;59402;48.396;-4.472;2022-07-17T05:13:25;101237.13;;;21.84
41710;BMP280;59402;48.396;-4.472;2022-07-17T05:15:50;101234.75;;;21.89
41710;BMP280;59402;48.396;-4.472;2022-07-17T05:18:16;101244.22;;;21.90
41710;BMP280;59402;48.396;-4.472;2022-07-17T05:20:41;101240.03;;;21.95
41710;BMP280;59402;48.396;-4.472;2022-07-17T05:23:07;101243.09;;;21.98
41710;BMP280;59402;48.396;-4.472;2022-07-17T05:25:32;101243.72;;;22.00
41710;BMP280;59402;48.396;-4.472;2022-07-17T05:27:58;101249.34;;;22.04
41710;BMP280;59402;48.396;-4.472;2022-07-17T05:30:23;101250.19;;;22.04
41710;BMP280;59402;48.396;-4.472;2022-07-17T05:32:49;101253.75;;;22.03
41710;BMP280;59402;48.396;-4.472;2022-07-17T05:35:14;101246.56;;;22.05
41710;BMP280;59402;48.396;-4.472;2022-07-17T05:37:40;101254.31;;;22.13
41710;BMP280;59402;48.396;-4.472;2022-07-17T05:40:06;101253.91;;;22.16
41710;BMP280;59402;48.396;-4.472;2022-07-17T05:42:31;101256.75;;;22.15
41710;BMP280;59402;48.396;-4.472;2022-07-17T05:44:57;101259.59;;;22.20
41710;BMP280;59402;48.396;-4.472;2022-07-17T05:47:24;101260.03;;;22.23
41710;BMP280;59402;48.396;-4.472;2022-07-17T05:49:49;101259.03;;;22.24
41710;BMP280;59402;48.396;-4.472;2022-07-17T05:52:15;101262.47;;;22.31
41710;BMP280;59402;48.396;-4.472;2022-07-17T05:54:40;101260.50;;;22.33
41710;BMP280;59402;48.396;-4.472;2022-07-17T05:57:06;101268.31;;;22.33
41710;BMP280;59402;48.396;-4.472;2022-07-17T05:59:31;101264.56;;;22.42
41710;BMP280;59402;48.396;-4.472;2022-07-17T06:01:57;101269.25;;;22.46
41710;BMP280;59402;48.396;-4.472;2022-07-17T06:04:22;101263.84;;;22.48
41710;BMP280;59402;48.396;-4.472;2022-07-17T06:06:48;101272.28;;;22.50
41710;BMP280;59402;48.396;-4.472;2022-07-17T06:09:13;101275.91;;;22.49
41710;BMP280;59402;48.396;-4.472;2022-07-17T06:11:39;101271.31;;;22.51
41710;BMP280;59402;48.396;-4.472;2022-07-17T06:14:04;101269.09;;;22.54
41710;BMP280;59402;48.396;-4.472;2022-07-17T06:16:29;101263.31;;;22.59
41710;BMP280;59402;48.396;-4.472;2022-07-17T06:18:55;101271.75;;;22.61
41710;BMP280;59402;48.396;-4.472;2022-07-17T06:21:20;101270.81;;;22.68
41710;BMP280;59402;48.396;-4.472;2022-07-17T06:23:46;101271.28;;;22.71
41710;BMP280;59402;48.396;-4.472;2022-07-17T06:26:11;101282.28;;;22.73
41710;BMP280;59402;48.396;-4.472;2022-07-17T06:28:37;101281.13;;;22.76
41710;BMP280;59402;48.396;-4.472;2022-07-17T06:31:02;101280.16;;;22.83
41710;BMP280;59402;48.396;-4.472;2022-07-17T06:33:28;101281.25;;;22.89
41710;BMP280;59402;48.396;-4.472;2022-07-17T06:35:53;101284.50;;;22.91
41710;BMP280;59402;48.396;-4.472;2022-07-17T06:38:19;101286.88;;;22.92
41710;BMP280;59402;48.396;-4.472;2022-07-17T06:40:44;101284.53;;;22.97
41710;BMP280;59402;48.396;-4.472;2022-07-17T06:43:10;101279.34;;;23.03
41710;BMP280;59402;48.396;-4.472;2022-07-17T06:45:35;101276.91;;;23.02
41710;BMP280;59402;48.396;-4.472;2022-07-17T06:48:01;101275.13;;;23.09
41710;BMP280;59402;48.396;-4.472;2022-07-17T06:50:26;101277.00;;;23.15
41710;BMP280;59402;48.396;-4.472;2022-07-17T06:52:52;101277.03;;;23.21
41710;BMP280;59402;48.396;-4.472;2022-07-17T06:55:17;101282.44;;;23.20
41710;BMP280;59402;48.396;-4.472;2022-07-17T06:57:43;101272.84;;;23.27
41710;BMP280;59402;48.396;-4.472;2022-07-17T07:00:08;101273.50;;;23.35
41710;BMP280;59402;48.396;-4.472;2022-07-17T07:02:35;101275.91;;;23.43
41710;BMP280;59402;48.396;-4.472;2022-07-17T07:05:00;101273.13;;;23.44
41710;BMP280;59402;48.396;-4.472;2022-07-17T07:07:26;101266.50;;;23.48
41710;BMP280;59402;48.396;-4.472;2022-07-17T07:09:51;101270.97;;;23.54
41710;BMP280;59402;48.396;-4.472;2022-07-17T07:12:17;101266.59;;;23.61
41710;BMP280;59402;48.396;-4.472;2022-07-17T07:14:42;101272.44;;;23.69
41710;BMP280;59402;48.396;-4.472;2022-07-17T07:17:08;101267.47;;;23.81
41710;BMP280;59402;48.396;-4.472;2022-07-17T07:19:33;101267.25;;;23.82
41710;BMP280;59402;48.396;-4.472;2022-07-17T07:21:59;101270.31;;;23.92
41710;BMP280;59402;48.396;-4.472;2022-07-17T07:24:24;101276.94;;;23.95
41710;BMP280;59402;48.396;-4.472;2022-07-17T07:26:49;101276.16;;;24.01
41710;BMP280;59402;48.396;-4.472;2022-07-17T07:29:15;101282.00;;;24.09
41710;BMP280;59402;48.396;-4.472;2022-07-17T07:31:41;101273.75;;;24.12
41710;BMP280;59402;48.396;-4.472;2022-07-17T07:34:06;101278.59;;;24.21
41710;BMP280;59402;48.396;-4.472;2022-07-17T07:36:33;101273.41;;;24.28
41710;BMP280;59402;48.396;-4.472;2022-07-17T07:38:58;101267.78;;;24.37
41710;BMP280;59402;48.396;-4.472;2022-07-17T07:41:24;101274.81;;;24.43
41710;BMP280;59402;48.396;-4.472;2022-07-17T07:43:49;101283.09;;;24.53
41710;BMP280;59402;48.396;-4.472;2022-07-17T07:46:15;101288.53;;;24.58
41710;BMP280;59402;48.396;-4.472;2022-07-17T07:48:40;101299.78;;;24.58
41710;BMP280;59402;48.396;-4.472;2022-07-17T07:51:05;101299.41;;;24.61
41710;BMP280;59402;48.396;-4.472;2022-07-17T07:53:31;101301.41;;;24.72
41710;BMP280;59402;48.396;-4.472;2022-07-17T07:55:56;101305.63;;;24.79
41710;BMP280;59402;48.396;-4.472;2022-07-17T07:58:22;101305.00;;;24.77
41710;BMP280;59402;48.396;-4.472;2022-07-17T08:00:47;101293.34;;;24.86
41710;BMP280;59402;48.396;-4.472;2022-07-17T08:03:13;101302.00;;;24.87
41710;BMP280;59402;48.396;-4.472;2022-07-17T08:05:39;101297.19;;;24.90
41710;BMP280;59402;48.396;-4.472;2022-07-17T08:08:05;101300.38;;;24.86
41710;BMP280;59402;48.396;-4.472;2022-07-17T08:10:31;101302.44;;;24.97
41710;BMP280;59402;48.396;-4.472;2022-07-17T08:12:57;101305.22;;;25.02
41710;BMP280;59402;48.396;-4.472;2022-07-17T08:15:22;101308.03;;;25.13
41710;BMP280;59402;48.396;-4.472;2022-07-17T08:17:50;101298.97;;;25.09
41710;BMP280;59402;48.396;-4.472;2022-07-17T08:20:17;101301.34;;;25.23
41710;BMP280;59402;48.396;-4.472;2022-07-17T08:22:43;101300.34;;;25.31
41710;BMP280;59402;48.396;-4.472;2022-07-17T08:25:09;101299.31;;;25.32
41710;BMP280;59402;48.396;-4.472;2022-07-17T08:27:39;101301.09;;;25.38
41710;BMP280;59402;48.396;-4.472;2022-07-17T08:30:07;101301.34;;;25.23
41710;BMP280;59402;48.396;-4.472;2022-07-17T08:32:33;101311.00;;;25.36
41710;BMP280;59402;48.396;-4.472;2022-07-17T08:34:59;101310.97;;;25.42
41710;BMP280;59402;48.396;-4.472;2022-07-17T08:37:24;101307.97;;;25.39
41710;BMP280;59402;48.396;-4.472;2022-07-17T08:39:51;101319.59;;;25.49
41710;BMP280;59402;48.396;-4.472;2022-07-17T08:42:16;101305.50;;;25.50
41710;BMP280;59402;48.396;-4.472;2022-07-17T08:44:43;101300.44;;;25.61
41710;BMP280;59402;48.396;-4.472;2022-07-17T08:47:11;101297.41;;;25.64
41710;BMP280;59402;48.396;-4.472;2022-07-17T08:49:48;101297.19;;;25.66
41710;BMP280;59402;48.396;-4.472;2022-07-17T08:52:14;101294.97;;;25.69
41710;BMP280;59402;48.396;-4.472;2022-07-17T08:54:40;101292.78;;;25.66
41710;BMP280;59402;48.396;-4.472;2022-07-17T08:57:07;101296.31;;;25.78
41710;BMP280;59402;48.396;-4.472;2022-07-17T08:59:34;101295.47;;;25.90
41710;BMP280;59402;48.396;-4.472;2022-07-17T09:02:00;101278.91;;;25.90
41710;BMP280;59402;48.396;-4.472;2022-07-17T09:04:27;101295.22;;;25.98
41710;BMP280;59402;48.396;-4.472;2022-07-17T09:07:03;101285.88;;;26.09
41710;BMP280;59402;48.396;-4.472;2022-07-17T09:09:30;101289.44;;;26.20
41710;BMP280;59402;48.396;-4.472;2022-07-17T09:11:57;101293.00;;;26.32
41710;BMP280;59402;48.396;-4.472;2022-07-17T09:14:40;101286.81;;;26.20
41710;BMP280;59402;48.396;-4.472;2022-07-17T09:17:08;101290.81;;;26.29
41710;BMP280;59402;48.396;-4.472;2022-07-17T09:19:36;101283.63;;;26.43
41710;BMP280;59402;48.396;-4.472;2022-07-17T09:22:21;101295.06;;;26.54
41710;BMP280;59402;48.396;-4.472;2022-07-17T09:24:50;101287.28;;;26.66
41710;BMP280;59402;48.396;-4.472;2022-07-17T09:27:36;101275.66;;;26.80
41710;BMP280;59402;48.396;-4.472;2022-07-17T09:30:05;101273.19;;;26.85
41710;BMP280;59402;48.396;-4.472;2022-07-17T09:32:34;101274.44;;;27.00
41710;BMP280;59402;48.396;-4.472;2022-07-17T09:35:01;101280.81;;;27.10
41710;BMP280;59402;48.396;-4.472;2022-07-17T09:37:29;101264.31;;;27.03
41710;BMP280;59402;48.396;-4.472;2022-07-17T09:39:56;101280.06;;;27.03
41710;BMP280;59402;48.396;-4.472;2022-07-17T09:42:27;101276.84;;;27.19
41710;BMP280;59402;48.396;-4.472;2022-07-17T09:45:13;101282.69;;;27.21
41710;BMP280;59402;48.396;-4.472;2022-07-17T09:47:39;101271.81;;;27.35
41710;BMP280;59402;48.396;-4.472;2022-07-17T09:50:07;101264.47;;;27.44
41710;BMP280;59402;48.396;-4.472;2022-07-17T09:52:35;101278.41;;;27.62
41710;BMP280;59402;48.396;-4.472;2022-07-17T09:55:01;101272.41;;;27.84
41710;BMP280;59402;48.396;-4.472;2022-07-17T09:57:29;101267.22;;;27.95
41710;BMP280;59402;48.396;-4.472;2022-07-17T09:59:58;101265.78;;;28.11
41710;BMP280;59402;48.396;-4.472;2022-07-17T10:02:24;101264.31;;;28.15
41710;BMP280;59402;48.396;-4.472;2022-07-17T10:04:51;101264.91;;;28.28
41710;BMP280;59402;48.396;-4.472;2022-07-17T10:07:17;101270.28;;;28.33
41710;BMP280;59402;48.396;-4.472;2022-07-17T10:09:43;101267.00;;;28.37
41710;BMP280;59402;48.396;-4.472;2022-07-17T10:12:09;101259.56;;;28.46
41710;BMP280;59402;48.396;-4.472;2022-07-17T10:14:36;101256.56;;;28.54
41710;BMP280;59402;48.396;-4.472;2022-07-17T10:17:12;101257.50;;;28.70
41710;BMP280;59402;48.396;-4.472;2022-07-17T10:19:47;101256.13;;;28.79
41710;BMP280;59402;48.396;-4.472;2022-07-17T10:22:14;101265.44;;;28.82
41710;BMP280;59402;48.396;-4.472;2022-07-17T10:24:56;101257.59;;;28.98
41710;BMP280;59402;48.396;-4.472;2022-07-17T10:27:29;101246.72;;;29.06
41710;BMP280;59402;48.396;-4.472;2022-07-17T10:30:09;101248.16;;;29.36
41710;BMP280;59402;48.396;-4.472;2022-07-17T10:32:36;101241.50;;;29.45
41710;BMP280;59402;48.396;-4.472;2022-07-17T10:37:39;101241.06;;;29.64
41710;BMP280;59402;48.396;-4.472;2022-07-17T10:45:22;101248.50;;;29.78
41710;BMP280;59402;48.396;-4.472;2022-07-17T10:50:24;101248.38;;;30.17
41710;BMP280;59402;48.396;-4.472;2022-07-17T10:55:27;101261.91;;;30.53
41710;BMP280;59402;48.396;-4.472;2022-07-17T10:57:54;101254.00;;;30.53
41710;BMP280;59402;48.396;-4.472;2022-07-17T11:00:20;101245.81;;;30.71
41710;BMP280;59402;48.396;-4.472;2022-07-17T11:02:45;101247.09;;;30.85
41710;BMP280;59402;48.396;-4.472;2022-07-17T11:05:12;101248.81;;;30.96
41710;BMP280;59402;48.396;-4.472;2022-07-17T11:07:52;101255.03;;;31.06
41710;BMP280;59402;48.396;-4.472;2022-07-17T11:10:18;101249.75;;;31.06
41710;BMP280;59402;48.396;-4.472;2022-07-17T11:12:44;101256.28;;;31.20
41710;BMP280;59402;48.396;-4.472;2022-07-17T11:15:09;101262.41;;;31.25
41710;BMP280;59402;48.396;-4.472;2022-07-17T11:17:35;101251.06;;;31.46
41710;BMP280;59402;48.396;-4.472;2022-07-17T11:20:02;101248.41;;;31.46
41710;BMP280;59402;48.396;-4.472;2022-07-17T11:22:28;101246.75;;;31.61
41710;BMP280;59402;48.396;-4.472;2022-07-17T11:24:53;101248.34;;;31.62
41710;BMP280;59402;48.396;-4.472;2022-07-17T11:27:24;101243.97;;;31.51
41710;BMP280;59402;48.396;-4.472;2022-07-17T11:29:51;101238.28;;;31.64
41710;BMP280;59402;48.396;-4.472;2022-07-17T11:32:17;101244.50;;;31.75
41710;BMP280;59402;48.396;-4.472;2022-07-17T11:34:43;101242.59;;;31.96
41710;BMP280;59402;48.396;-4.472;2022-07-17T11:37:09;101234.66;;;31.96
41710;BMP280;59402;48.396;-4.472;2022-07-17T11:39:48;101224.06;;;31.96
41710;BMP280;59402;48.396;-4.472;2022-07-17T11:42:16;101232.75;;;32.18
41710;BMP280;59402;48.396;-4.472;2022-07-17T11:44:43;101229.50;;;32.47
41710;BMP280;59402;48.396;-4.472;2022-07-17T11:47:10;101228.00;;;32.56
41710;BMP280;59402;48.396;-4.472;2022-07-17T11:49:37;101230.28;;;32.43
41710;BMP280;59402;48.396;-4.472;2022-07-17T11:52:16;101221.19;;;32.75
41710;BMP280;59402;48.396;-4.472;2022-07-17T11:54:53;101229.00;;;32.86
41710;BMP280;59402;48.396;-4.472;2022-07-17T11:57:21;101214.16;;;32.90
41710;BMP280;59402;48.396;-4.472;2022-07-17T11:59:47;101218.22;;;33.07
41710;BMP280;59402;48.396;-4.472;2022-07-17T12:02:17;101220.63;;;33.19
41710;BMP280;59402;48.396;-4.472;2022-07-17T12:04:53;101214.84;;;33.26
41710;BMP280;59402;48.396;-4.472;2022-07-17T12:07:20;101217.59;;;33.51
41710;BMP280;59402;48.396;-4.472;2022-07-17T12:09:46;101216.75;;;33.46
41710;BMP280;59402;48.396;-4.472;2022-07-17T12:14:53;101219.78;;;33.79
41710;BMP280;59402;48.396;-4.472;2022-07-17T12:17:19;101223.78;;;34.11
41710;BMP280;59402;48.396;-4.472;2022-07-17T12:19:45;101220.59;;;34.19
41710;BMP280;59402;48.396;-4.472;2022-07-17T12:22:10;101218.94;;;34.67
41710;BMP280;59402;48.396;-4.472;2022-07-17T12:27:06;101222.81;;;35.09
41710;BMP280;59402;48.396;-4.472;2022-07-17T12:29:32;101220.66;;;35.64
41710;BMP280;59402;48.396;-4.472;2022-07-17T12:32:11;101213.72;;;36.57
41710;BMP280;59402;48.396;-4.472;2022-07-17T12:34:45;101218.38;;;36.75
41710;BMP280;59402;48.396;-4.472;2022-07-17T12:37:18;101210.00;;;37.27
41710;BMP280;59402;48.396;-4.472;2022-07-17T12:39:45;101217.72;;;37.47
41710;BMP280;59402;48.396;-4.472;2022-07-17T12:42:11;101218.00;;;37.46
41710;BMP280;59402;48.396;-4.472;2022-07-17T12:44:37;101212.34;;;37.84
41710;BMP280;59402;48.396;-4.472;2022-07-17T12:47:03;101220.56;;;38.05
41710;BMP280;59402;48.396;-4.472;2022-07-17T12:49:29;101207.00;;;38.33
41710;BMP280;59402;48.396;-4.472;2022-07-17T12:51:55;101220.28;;;38.52
41710;BMP280;59402;48.396;-4.472;2022-07-17T12:54:20;101208.50;;;38.08
41710;BMP280;59402;48.396;-4.472;2022-07-17T12:56:46;101210.53;;;38.29
41710;BMP280;59402;48.396;-4.472;2022-07-17T12:59:12;101211.66;;;38.68
41710;BMP280;59402;48.396;-4.472;2022-07-17T13:01:38;101196.81;;;38.17
41710;BMP280;59402;48.396;-4.472;2022-07-17T13:04:04;101194.66;;;37.87
41710;BMP280;59402;48.396;-4.472;2022-07-17T13:06:29;101204.06;;;37.30
41710;BMP280;59402;48.396;-4.472;2022-07-17T13:08:55;101208.50;;;38.08
41710;BMP280;59402;48.396;-4.472;2022-07-17T13:11:20;101204.53;;;38.63
41710;BMP280;59402;48.396;-4.472;2022-07-17T13:13:46;101195.91;;;38.93
41710;BMP280;59402;48.396;-4.472;2022-07-17T13:16:13;101193.81;;;39.52
41710;BMP280;59402;48.396;-4.472;2022-07-17T13:18:39;101196.72;;;40.29
41710;BMP280;59402;48.396;-4.472;2022-07-17T13:21:05;101184.88;;;40.30
41710;BMP280;59402;48.396;-4.472;2022-07-17T13:23:31;101182.50;;;40.20
41710;BMP280;59402;48.396;-4.472;2022-07-17T13:25:57;101177.25;;;39.50
41710;BMP280;59402;48.396;-4.472;2022-07-17T13:28:22;101186.75;;;39.77
41710;BMP280;59402;48.396;-4.472;2022-07-17T13:30:47;101181.41;;;39.77
41710;BMP280;59402;48.396;-4.472;2022-07-17T13:33:13;101177.94;;;39.77
41710;BMP280;59402;48.396;-4.472;2022-07-17T13:35:38;101171.28;;;40.18
41710;BMP280;59402;48.396;-4.472;2022-07-17T13:38:04;101168.53;;;40.86
41710;BMP280;59402;48.396;-4.472;2022-07-17T13:40:32;101166.25;;;40.63
41710;BMP280;59402;48.396;-4.472;2022-07-17T13:42:59;101162.75;;;41.60
41710;BMP280;59402;48.396;-4.472;2022-07-17T13:45:25;101164.66;;;42.21
41710;BMP280;59402;48.396;-4.472;2022-07-17T13:47:51;101161.88;;;42.47
41710;BMP280;59402;48.396;-4.472;2022-07-17T13:50:16;101161.94;;;41.76
41710;BMP280;59402;48.396;-4.472;2022-07-17T13:52:42;101160.25;;;41.38
41710;BMP280;59402;48.396;-4.472;2022-07-17T13:55:08;101155.13;;;41.87
41710;BMP280;59402;48.396;-4.472;2022-07-17T13:57:34;101152.91;;;41.89
41710;BMP280;59402;48.396;-4.472;2022-07-17T13:59:59;101147.34;;;42.48